KCUB

Jim Hamilton L B Owens Airport

Columbia, South Carolina, USA
METAR KCUB 142315Z AUTO VRB03KT 5SM BR FEW004 SCT030 OVC041 14/13 A3001 RMK AO2 RAE07 P0001 T01390128
Observed Flight Rules
Dec-14 @ 23:15 UTC (43 minutes ago) Marginal Visual Flight Rules
Wind Visibility Clouds Conditions
Variable at 3 knots 5 miles
  • Few at 400' AGL
  • Scattered at 3,000' AGL
  • Overcast at 4,100' AGL
  • Mist
Temperatures Readings Precipitation
Current 14°C / 57°F
Dewpoint 13°C / 55°F
Humidity 94%
Altimeter 30.01" Hg
Pressure 1016 hPa
Elevation 56
Current Rain 0.01
METAR KCUB 142315Z AUTO VRB03KT 5SM BR FEW004 SCT030 OVC041 14/13 A3001 RMK AO2 RAE07 P0001 T01390128
Observed Flight Rules
Dec-14 @ 23:15 UTC
(43 minutes ago)
MVFR
Wind Visibility
Variable at 3 knots 5 miles
Clouds
  • Few at 400' AGL
  • Scattered at 3,000' AGL
  • Overcast at 4,100' AGL
Conditions
  • Mist
Temperature Dewpoint
14°C / 57°F 13°C / 55°F
Humidity Altimeter Pressure
94% 30.01" Hg 1016 hPa
Current Rain
0.01